sensor_id;sensor_type;location;lat;lon;timestamp;P1;durP1;ratioP1;P2;durP2;ratioP2
17925;SDS011;9088;55.674;13.354;2023-04-08T00:01:23;4.80;;;4.60;;
17925;SDS011;9088;55.674;13.354;2023-04-08T00:03:50;4.70;;;4.50;;
17925;SDS011;9088;55.674;13.354;2023-04-08T00:06:17;4.83;;;4.63;;
17925;SDS011;9088;55.674;13.354;2023-04-08T00:08:44;4.70;;;4.50;;
17925;SDS011;9088;55.674;13.354;2023-04-08T00:11:11;4.90;;;4.70;;
17925;SDS011;9088;55.674;13.354;2023-04-08T00:13:38;4.90;;;4.70;;
17925;SDS011;9088;55.674;13.354;2023-04-08T00:16:06;5.00;;;4.80;;
17925;SDS011;9088;55.674;13.354;2023-04-08T00:18:33;4.90;;;4.70;;
17925;SDS011;9088;55.674;13.354;2023-04-08T00:21:02;4.90;;;4.70;;
17925;SDS011;9088;55.674;13.354;2023-04-08T00:23:29;4.90;;;4.70;;
17925;SDS011;9088;55.674;13.354;2023-04-08T00:25:56;5.00;;;4.80;;
17925;SDS011;9088;55.674;13.354;2023-04-08T00:28:23;5.10;;;4.90;;
17925;SDS011;9088;55.674;13.354;2023-04-08T00:30:51;5.00;;;4.80;;
17925;SDS011;9088;55.674;13.354;2023-04-08T00:33:19;4.90;;;4.70;;
17925;SDS011;9088;55.674;13.354;2023-04-08T00:35:48;4.90;;;4.70;;
17925;SDS011;9088;55.674;13.354;2023-04-08T00:38:16;5.00;;;4.80;;
17925;SDS011;9088;55.674;13.354;2023-04-08T00:40:43;5.10;;;4.90;;
17925;SDS011;9088;55.674;13.354;2023-04-08T00:43:10;5.00;;;4.80;;
17925;SDS011;9088;55.674;13.354;2023-04-08T00:45:37;5.10;;;4.90;;
17925;SDS011;9088;55.674;13.354;2023-04-08T00:48:06;5.07;;;4.87;;
17925;SDS011;9088;55.674;13.354;2023-04-08T00:50:34;4.90;;;4.70;;
17925;SDS011;9088;55.674;13.354;2023-04-08T00:53:01;4.90;;;4.70;;
17925;SDS011;9088;55.674;13.354;2023-04-08T00:55:28;5.00;;;4.80;;
17925;SDS011;9088;55.674;13.354;2023-04-08T00:57:55;5.00;;;4.80;;
17925;SDS011;9088;55.674;13.354;2023-04-08T01:00:23;4.80;;;4.60;;
17925;SDS011;9088;55.674;13.354;2023-04-08T01:02:54;4.80;;;4.60;;
17925;SDS011;9088;55.674;13.354;2023-04-08T01:05:27;4.80;;;4.60;;
17925;SDS011;9088;55.674;13.354;2023-04-08T01:07:57;4.90;;;4.70;;
17925;SDS011;9088;55.674;13.354;2023-04-08T01:10:25;4.87;;;4.67;;
17925;SDS011;9088;55.674;13.354;2023-04-08T01:12:55;4.70;;;4.50;;
17925;SDS011;9088;55.674;13.354;2023-04-08T01:15:22;4.80;;;4.60;;
17925;SDS011;9088;55.674;13.354;2023-04-08T01:17:51;4.83;;;4.63;;
17925;SDS011;9088;55.674;13.354;2023-04-08T01:20:18;4.97;;;4.77;;
17925;SDS011;9088;55.674;13.354;2023-04-08T01:22:51;4.70;;;4.50;;
17925;SDS011;9088;55.674;13.354;2023-04-08T01:25:23;4.90;;;4.70;;
17925;SDS011;9088;55.674;13.354;2023-04-08T01:27:53;4.63;;;4.43;;
17925;SDS011;9088;55.674;13.354;2023-04-08T01:30:21;4.63;;;4.43;;
17925;SDS011;9088;55.674;13.354;2023-04-08T01:32:49;4.70;;;4.50;;
17925;SDS011;9088;55.674;13.354;2023-04-08T01:35:17;4.80;;;4.60;;
17925;SDS011;9088;55.674;13.354;2023-04-08T01:37:44;4.70;;;4.50;;
17925;SDS011;9088;55.674;13.354;2023-04-08T01:40:15;4.70;;;4.50;;
17925;SDS011;9088;55.674;13.354;2023-04-08T01:42:42;4.70;;;4.50;;
17925;SDS011;9088;55.674;13.354;2023-04-08T01:45:10;4.70;;;4.50;;
17925;SDS011;9088;55.674;13.354;2023-04-08T01:47:38;4.70;;;4.50;;
17925;SDS011;9088;55.674;13.354;2023-04-08T01:50:05;4.73;;;4.53;;
17925;SDS011;9088;55.674;13.354;2023-04-08T01:52:33;4.70;;;4.50;;
17925;SDS011;9088;55.674;13.354;2023-04-08T01:55:01;4.80;;;4.60;;
17925;SDS011;9088;55.674;13.354;2023-04-08T01:57:29;4.83;;;4.63;;
17925;SDS011;9088;55.674;13.354;2023-04-08T01:59:58;4.80;;;4.60;;
17925;SDS011;9088;55.674;13.354;2023-04-08T02:02:27;4.80;;;4.60;;
17925;SDS011;9088;55.674;13.354;2023-04-08T02:04:55;4.73;;;4.53;;
17925;SDS011;9088;55.674;13.354;2023-04-08T02:07:22;4.80;;;4.60;;
17925;SDS011;9088;55.674;13.354;2023-04-08T02:09:49;5.00;;;4.80;;
17925;SDS011;9088;55.674;13.354;2023-04-08T02:12:16;5.00;;;4.80;;
17925;SDS011;9088;55.674;13.354;2023-04-08T02:14:43;4.90;;;4.70;;
17925;SDS011;9088;55.674;13.354;2023-04-08T02:17:16;4.87;;;4.67;;
17925;SDS011;9088;55.674;13.354;2023-04-08T02:19:51;4.90;;;4.70;;
17925;SDS011;9088;55.674;13.354;2023-04-08T02:22:24;4.80;;;4.60;;
17925;SDS011;9088;55.674;13.354;2023-04-08T02:24:55;4.70;;;4.50;;
17925;SDS011;9088;55.674;13.354;2023-04-08T02:27:24;4.60;;;4.40;;
17925;SDS011;9088;55.674;13.354;2023-04-08T02:29:51;4.80;;;4.60;;
17925;SDS011;9088;55.674;13.354;2023-04-08T02:32:21;4.70;;;4.50;;
17925;SDS011;9088;55.674;13.354;2023-04-08T02:34:50;4.60;;;4.40;;
17925;SDS011;9088;55.674;13.354;2023-04-08T02:37:18;4.47;;;4.27;;
17925;SDS011;9088;55.674;13.354;2023-04-08T02:39:45;4.73;;;4.53;;
17925;SDS011;9088;55.674;13.354;2023-04-08T02:42:12;4.60;;;4.40;;
17925;SDS011;9088;55.674;13.354;2023-04-08T02:44:39;4.77;;;4.57;;
17925;SDS011;9088;55.674;13.354;2023-04-08T02:47:06;4.70;;;4.50;;
17925;SDS011;9088;55.674;13.354;2023-04-08T02:49:33;4.80;;;4.60;;
17925;SDS011;9088;55.674;13.354;2023-04-08T02:52:01;4.57;;;4.37;;
17925;SDS011;9088;55.674;13.354;2023-04-08T02:54:29;4.90;;;4.70;;
17925;SDS011;9088;55.674;13.354;2023-04-08T02:56:56;4.80;;;4.60;;
17925;SDS011;9088;55.674;13.354;2023-04-08T02:59:26;4.70;;;4.50;;
17925;SDS011;9088;55.674;13.354;2023-04-08T03:01:53;4.70;;;4.50;;
17925;SDS011;9088;55.674;13.354;2023-04-08T03:04:20;4.93;;;4.73;;
17925;SDS011;9088;55.674;13.354;2023-04-08T03:06:47;4.70;;;4.50;;
17925;SDS011;9088;55.674;13.354;2023-04-08T03:09:15;4.90;;;4.70;;
17925;SDS011;9088;55.674;13.354;2023-04-08T03:11:42;5.10;;;4.90;;
17925;SDS011;9088;55.674;13.354;2023-04-08T03:14:09;4.80;;;4.60;;
17925;SDS011;9088;55.674;13.354;2023-04-08T03:16:36;4.87;;;4.67;;
17925;SDS011;9088;55.674;13.354;2023-04-08T03:19:03;5.10;;;4.90;;
17925;SDS011;9088;55.674;13.354;2023-04-08T03:21:30;5.20;;;5.00;;
17925;SDS011;9088;55.674;13.354;2023-04-08T03:23:57;5.10;;;4.90;;
17925;SDS011;9088;55.674;13.354;2023-04-08T03:26:26;4.80;;;4.60;;
17925;SDS011;9088;55.674;13.354;2023-04-08T03:28:53;4.90;;;4.70;;
17925;SDS011;9088;55.674;13.354;2023-04-08T03:31:20;4.97;;;4.77;;
17925;SDS011;9088;55.674;13.354;2023-04-08T03:33:47;4.80;;;4.60;;
17925;SDS011;9088;55.674;13.354;2023-04-08T03:36:14;4.70;;;4.50;;
17925;SDS011;9088;55.674;13.354;2023-04-08T03:38:41;4.73;;;4.53;;
17925;SDS011;9088;55.674;13.354;2023-04-08T03:41:08;4.50;;;4.30;;
17925;SDS011;9088;55.674;13.354;2023-04-08T03:43:36;4.40;;;4.20;;
17925;SDS011;9088;55.674;13.354;2023-04-08T03:46:03;4.80;;;4.60;;
17925;SDS011;9088;55.674;13.354;2023-04-08T03:48:30;4.50;;;4.30;;
17925;SDS011;9088;55.674;13.354;2023-04-08T03:50:58;4.40;;;4.20;;
17925;SDS011;9088;55.674;13.354;2023-04-08T03:53:25;4.10;;;4.00;;
17925;SDS011;9088;55.674;13.354;2023-04-08T03:55:53;4.27;;;4.10;;
17925;SDS011;9088;55.674;13.354;2023-04-08T03:58:20;4.30;;;4.10;;
17925;SDS011;9088;55.674;13.354;2023-04-08T04:00:49;4.00;;;3.90;;
17925;SDS011;9088;55.674;13.354;2023-04-08T04:03:16;4.17;;;4.07;;
17925;SDS011;9088;55.674;13.354;2023-04-08T04:05:43;4.50;;;4.30;;
17925;SDS011;9088;55.674;13.354;2023-04-08T04:08:10;4.23;;;4.10;;
17925;SDS011;9088;55.674;13.354;2023-04-08T04:10:37;4.63;;;4.43;;
17925;SDS011;9088;55.674;13.354;2023-04-08T04:13:04;4.40;;;4.20;;
17925;SDS011;9088;55.674;13.354;2023-04-08T04:15:31;4.60;;;4.40;;
17925;SDS011;9088;55.674;13.354;2023-04-08T04:18:00;4.77;;;4.57;;
17925;SDS011;9088;55.674;13.354;2023-04-08T04:20:27;4.73;;;4.53;;
17925;SDS011;9088;55.674;13.354;2023-04-08T04:22:54;4.60;;;4.40;;
17925;SDS011;9088;55.674;13.354;2023-04-08T04:25:21;4.70;;;4.50;;
17925;SDS011;9088;55.674;13.354;2023-04-08T04:27:49;4.50;;;4.30;;
17925;SDS011;9088;55.674;13.354;2023-04-08T04:30:16;4.50;;;4.30;;
17925;SDS011;9088;55.674;13.354;2023-04-08T04:32:43;4.40;;;4.20;;
17925;SDS011;9088;55.674;13.354;2023-04-08T04:35:12;4.40;;;4.20;;
17925;SDS011;9088;55.674;13.354;2023-04-08T04:37:39;8.93;;;8.53;;
17925;SDS011;9088;55.674;13.354;2023-04-08T04:40:06;9.07;;;8.67;;
17925;SDS011;9088;55.674;13.354;2023-04-08T04:42:33;9.13;;;8.73;;
17925;SDS011;9088;55.674;13.354;2023-04-08T04:45:00;8.70;;;8.40;;
17925;SDS011;9088;55.674;13.354;2023-04-08T04:47:28;8.80;;;8.50;;
17925;SDS011;9088;55.674;13.354;2023-04-08T04:49:56;8.70;;;8.40;;
17925;SDS011;9088;55.674;13.354;2023-04-08T04:52:24;8.70;;;8.40;;
17925;SDS011;9088;55.674;13.354;2023-04-08T04:54:51;9.00;;;8.60;;
17925;SDS011;9088;55.674;13.354;2023-04-08T04:57:18;8.50;;;8.20;;
17925;SDS011;9088;55.674;13.354;2023-04-08T04:59:45;8.80;;;8.47;;
17925;SDS011;9088;55.674;13.354;2023-04-08T05:02:12;8.53;;;8.23;;
17925;SDS011;9088;55.674;13.354;2023-04-08T05:04:39;8.67;;;8.37;;
17925;SDS011;9088;55.674;13.354;2023-04-08T05:07:06;8.50;;;8.20;;
17925;SDS011;9088;55.674;13.354;2023-04-08T05:09:35;8.60;;;8.30;;
17925;SDS011;9088;55.674;13.354;2023-04-08T05:12:02;8.30;;;8.00;;
17925;SDS011;9088;55.674;13.354;2023-04-08T05:14:29;8.20;;;7.90;;
17925;SDS011;9088;55.674;13.354;2023-04-08T05:16:57;8.00;;;7.70;;
17925;SDS011;9088;55.674;13.354;2023-04-08T05:19:24;7.90;;;7.60;;
17925;SDS011;9088;55.674;13.354;2023-04-08T05:21:51;7.90;;;7.60;;
17925;SDS011;9088;55.674;13.354;2023-04-08T05:24:18;7.80;;;7.50;;
17925;SDS011;9088;55.674;13.354;2023-04-08T05:26:46;7.80;;;7.50;;
17925;SDS011;9088;55.674;13.354;2023-04-08T05:29:17;7.50;;;7.20;;
17925;SDS011;9088;55.674;13.354;2023-04-08T05:31:45;7.43;;;7.13;;
17925;SDS011;9088;55.674;13.354;2023-04-08T05:34:12;7.50;;;7.20;;
17925;SDS011;9088;55.674;13.354;2023-04-08T05:36:39;7.30;;;7.00;;
17925;SDS011;9088;55.674;13.354;2023-04-08T05:39:08;7.00;;;6.70;;
17925;SDS011;9088;55.674;13.354;2023-04-08T05:41:34;7.07;;;6.77;;
17925;SDS011;9088;55.674;13.354;2023-04-08T05:44:03;6.93;;;6.63;;
17925;SDS011;9088;55.674;13.354;2023-04-08T05:46:30;6.90;;;6.60;;
17925;SDS011;9088;55.674;13.354;2023-04-08T05:48:57;6.90;;;6.60;;
17925;SDS011;9088;55.674;13.354;2023-04-08T05:51:24;6.80;;;6.50;;
17925;SDS011;9088;55.674;13.354;2023-04-08T05:53:51;6.40;;;6.20;;
17925;SDS011;9088;55.674;13.354;2023-04-08T05:56:18;6.70;;;6.40;;
17925;SDS011;9088;55.674;13.354;2023-04-08T05:58:45;6.20;;;6.00;;
17925;SDS011;9088;55.674;13.354;2023-04-08T06:01:13;6.07;;;5.87;;
17925;SDS011;9088;55.674;13.354;2023-04-08T06:03:40;5.93;;;5.73;;
17925;SDS011;9088;55.674;13.354;2023-04-08T06:06:08;5.90;;;5.70;;
17925;SDS011;9088;55.674;13.354;2023-04-08T06:08:36;5.33;;;5.13;;
17925;SDS011;9088;55.674;13.354;2023-04-08T06:11:03;5.10;;;4.90;;
17925;SDS011;9088;55.674;13.354;2023-04-08T06:13:30;5.27;;;5.07;;
17925;SDS011;9088;55.674;13.354;2023-04-08T06:15:58;4.97;;;4.77;;
17925;SDS011;9088;55.674;13.354;2023-04-08T06:18:26;5.10;;;4.90;;
17925;SDS011;9088;55.674;13.354;2023-04-08T06:20:53;5.20;;;5.00;;
17925;SDS011;9088;55.674;13.354;2023-04-08T06:23:20;4.50;;;4.30;;
17925;SDS011;9088;55.674;13.354;2023-04-08T06:25:47;5.00;;;4.80;;
17925;SDS011;9088;55.674;13.354;2023-04-08T06:28:14;5.00;;;4.80;;
17925;SDS011;9088;55.674;13.354;2023-04-08T06:30:41;4.90;;;4.70;;
17925;SDS011;9088;55.674;13.354;2023-04-08T06:33:08;4.90;;;4.70;;
17925;SDS011;9088;55.674;13.354;2023-04-08T06:35:37;5.00;;;4.80;;
17925;SDS011;9088;55.674;13.354;2023-04-08T06:38:04;4.50;;;4.30;;
17925;SDS011;9088;55.674;13.354;2023-04-08T06:40:35;4.50;;;4.30;;
17925;SDS011;9088;55.674;13.354;2023-04-08T06:43:03;4.50;;;4.30;;
17925;SDS011;9088;55.674;13.354;2023-04-08T06:45:31;4.47;;;4.27;;
17925;SDS011;9088;55.674;13.354;2023-04-08T06:47:58;4.40;;;4.20;;
17925;SDS011;9088;55.674;13.354;2023-04-08T06:50:25;4.40;;;4.20;;
17925;SDS011;9088;55.674;13.354;2023-04-08T06:52:54;4.50;;;4.30;;
17925;SDS011;9088;55.674;13.354;2023-04-08T06:55:21;4.40;;;4.20;;
17925;SDS011;9088;55.674;13.354;2023-04-08T06:57:48;4.30;;;4.10;;
17925;SDS011;9088;55.674;13.354;2023-04-08T07:00:15;4.07;;;3.97;;
17925;SDS011;9088;55.674;13.354;2023-04-08T07:02:42;4.30;;;4.10;;
17925;SDS011;9088;55.674;13.354;2023-04-08T07:05:09;4.10;;;4.00;;
17925;SDS011;9088;55.674;13.354;2023-04-08T07:07:36;4.07;;;3.97;;
17925;SDS011;9088;55.674;13.354;2023-04-08T07:10:08;3.90;;;3.80;;
17925;SDS011;9088;55.674;13.354;2023-04-08T07:12:35;3.90;;;3.80;;
17925;SDS011;9088;55.674;13.354;2023-04-08T07:15:02;3.90;;;3.80;;
17925;SDS011;9088;55.674;13.354;2023-04-08T07:17:32;4.07;;;3.97;;
17925;SDS011;9088;55.674;13.354;2023-04-08T07:19:59;3.60;;;3.50;;
17925;SDS011;9088;55.674;13.354;2023-04-08T07:22:26;3.87;;;3.77;;
17925;SDS011;9088;55.674;13.354;2023-04-08T07:24:53;3.47;;;3.37;;
17925;SDS011;9088;55.674;13.354;2023-04-08T07:27:22;3.73;;;3.63;;
17925;SDS011;9088;55.674;13.354;2023-04-08T07:29:51;3.63;;;3.53;;
17925;SDS011;9088;55.674;13.354;2023-04-08T07:32:19;3.47;;;3.37;;
17925;SDS011;9088;55.674;13.354;2023-04-08T07:34:46;3.50;;;3.40;;
17925;SDS011;9088;55.674;13.354;2023-04-08T07:37:13;3.30;;;3.20;;
17925;SDS011;9088;55.674;13.354;2023-04-08T07:39:40;3.60;;;3.50;;
17925;SDS011;9088;55.674;13.354;2023-04-08T07:42:07;3.50;;;3.40;;
17925;SDS011;9088;55.674;13.354;2023-04-08T07:44:35;3.30;;;3.20;;
17925;SDS011;9088;55.674;13.354;2023-04-08T07:47:03;3.10;;;3.00;;
17925;SDS011;9088;55.674;13.354;2023-04-08T07:49:30;3.07;;;2.97;;
17925;SDS011;9088;55.674;13.354;2023-04-08T07:51:57;3.33;;;3.23;;
17925;SDS011;9088;55.674;13.354;2023-04-08T07:54:24;3.20;;;3.10;;
17925;SDS011;9088;55.674;13.354;2023-04-08T07:56:51;3.20;;;3.10;;
17925;SDS011;9088;55.674;13.354;2023-04-08T07:59:18;3.00;;;2.90;;
17925;SDS011;9088;55.674;13.354;2023-04-08T08:01:47;3.07;;;2.97;;
17925;SDS011;9088;55.674;13.354;2023-04-08T08:04:14;2.80;;;2.70;;
17925;SDS011;9088;55.674;13.354;2023-04-08T08:06:41;3.10;;;3.00;;
17925;SDS011;9088;55.674;13.354;2023-04-08T08:09:08;3.10;;;3.00;;
17925;SDS011;9088;55.674;13.354;2023-04-08T08:11:35;3.00;;;2.90;;
17925;SDS011;9088;55.674;13.354;2023-04-08T08:14:02;3.20;;;3.10;;
17925;SDS011;9088;55.674;13.354;2023-04-08T08:16:29;3.40;;;3.30;;
17925;SDS011;9088;55.674;13.354;2023-04-08T08:18:58;3.60;;;3.50;;
17925;SDS011;9088;55.674;13.354;2023-04-08T08:21:25;3.53;;;3.43;;
17925;SDS011;9088;55.674;13.354;2023-04-08T08:23:52;3.53;;;3.43;;
17925;SDS011;9088;55.674;13.354;2023-04-08T08:26:20;3.70;;;3.60;;
17925;SDS011;9088;55.674;13.354;2023-04-08T08:28:48;3.70;;;3.60;;
17925;SDS011;9088;55.674;13.354;2023-04-08T08:31:15;3.70;;;3.60;;
17925;SDS011;9088;55.674;13.354;2023-04-08T08:33:42;3.60;;;3.50;;
17925;SDS011;9088;55.674;13.354;2023-04-08T08:36:11;3.40;;;3.30;;
17925;SDS011;9088;55.674;13.354;2023-04-08T08:38:38;3.43;;;3.33;;
17925;SDS011;9088;55.674;13.354;2023-04-08T08:41:08;3.33;;;3.23;;
17925;SDS011;9088;55.674;13.354;2023-04-08T08:43:35;3.37;;;3.27;;
17925;SDS011;9088;55.674;13.354;2023-04-08T08:46:14;3.40;;;3.30;;
17925;SDS011;9088;55.674;13.354;2023-04-08T08:48:42;3.30;;;3.20;;
17925;SDS011;9088;55.674;13.354;2023-04-08T08:51:11;3.30;;;3.20;;
17925;SDS011;9088;55.674;13.354;2023-04-08T08:53:38;3.10;;;3.00;;
17925;SDS011;9088;55.674;13.354;2023-04-08T08:56:09;3.40;;;3.30;;
17925;SDS011;9088;55.674;13.354;2023-04-08T08:58:36;3.30;;;3.20;;
17925;SDS011;9088;55.674;13.354;2023-04-08T09:03:46;3.60;;;3.50;;
17925;SDS011;9088;55.674;13.354;2023-04-08T09:06:14;3.67;;;3.57;;
17925;SDS011;9088;55.674;13.354;2023-04-08T09:08:44;3.30;;;3.20;;
17925;SDS011;9088;55.674;13.354;2023-04-08T09:11:11;3.63;;;3.53;;
17925;SDS011;9088;55.674;13.354;2023-04-08T09:13:39;3.23;;;3.13;;
17925;SDS011;9088;55.674;13.354;2023-04-08T09:16:09;3.60;;;3.50;;
17925;SDS011;9088;55.674;13.354;2023-04-08T09:18:39;3.27;;;3.17;;
17925;SDS011;9088;55.674;13.354;2023-04-08T09:21:08;3.53;;;3.43;;
17925;SDS011;9088;55.674;13.354;2023-04-08T09:23:41;3.60;;;3.50;;
17925;SDS011;9088;55.674;13.354;2023-04-08T09:26:09;3.43;;;3.33;;
17925;SDS011;9088;55.674;13.354;2023-04-08T09:28:36;3.00;;;2.90;;
17925;SDS011;9088;55.674;13.354;2023-04-08T09:31:16;3.17;;;3.07;;
17925;SDS011;9088;55.674;13.354;2023-04-08T09:33:44;3.53;;;3.43;;
17925;SDS011;9088;55.674;13.354;2023-04-08T09:36:18;3.27;;;3.17;;
17925;SDS011;9088;55.674;13.354;2023-04-08T09:38:47;3.30;;;3.20;;
17925;SDS011;9088;55.674;13.354;2023-04-08T09:41:14;3.40;;;3.30;;
17925;SDS011;9088;55.674;13.354;2023-04-08T09:43:42;3.10;;;3.00;;
17925;SDS011;9088;55.674;13.354;2023-04-08T09:46:13;3.30;;;3.20;;
17925;SDS011;9088;55.674;13.354;2023-04-08T09:48:43;2.93;;;2.83;;
17925;SDS011;9088;55.674;13.354;2023-04-08T09:51:12;3.20;;;3.10;;
17925;SDS011;9088;55.674;13.354;2023-04-08T09:53:44;3.00;;;2.90;;
17925;SDS011;9088;55.674;13.354;2023-04-08T09:56:13;3.00;;;2.90;;
17925;SDS011;9088;55.674;13.354;2023-04-08T09:58:44;3.17;;;3.07;;
17925;SDS011;9088;55.674;13.354;2023-04-08T10:01:13;3.00;;;2.90;;
17925;SDS011;9088;55.674;13.354;2023-04-08T10:03:44;3.20;;;3.10;;
17925;SDS011;9088;55.674;13.354;2023-04-08T10:06:14;3.07;;;2.97;;
17925;SDS011;9088;55.674;13.354;2023-04-08T10:08:42;3.40;;;3.30;;
17925;SDS011;9088;55.674;13.354;2023-04-08T10:11:09;3.37;;;3.27;;
17925;SDS011;9088;55.674;13.354;2023-04-08T10:13:37;3.10;;;3.00;;
17925;SDS011;9088;55.674;13.354;2023-04-08T10:16:17;3.10;;;3.00;;
17925;SDS011;9088;55.674;13.354;2023-04-08T10:18:45;3.17;;;3.07;;
17925;SDS011;9088;55.674;13.354;2023-04-08T10:21:35;3.00;;;2.90;;
17925;SDS011;9088;55.674;13.354;2023-04-08T10:24:05;3.20;;;3.10;;
17925;SDS011;9088;55.674;13.354;2023-04-08T10:26:33;3.07;;;2.97;;
17925;SDS011;9088;55.674;13.354;2023-04-08T10:31:48;3.03;;;2.93;;
17925;SDS011;9088;55.674;13.354;2023-04-08T10:34:15;3.10;;;3.00;;
17925;SDS011;9088;55.674;13.354;2023-04-08T10:36:42;3.10;;;3.00;;
17925;SDS011;9088;55.674;13.354;2023-04-08T10:39:09;3.00;;;2.90;;
17925;SDS011;9088;55.674;13.354;2023-04-08T10:41:40;3.30;;;3.20;;
17925;SDS011;9088;55.674;13.354;2023-04-08T10:44:14;3.20;;;3.10;;
17925;SDS011;9088;55.674;13.354;2023-04-08T10:46:41;3.13;;;3.03;;
17925;SDS011;9088;55.674;13.354;2023-04-08T10:49:09;3.30;;;3.20;;
17925;SDS011;9088;55.674;13.354;2023-04-08T10:51:37;3.30;;;3.20;;
17925;SDS011;9088;55.674;13.354;2023-04-08T10:54:04;3.17;;;3.07;;
17925;SDS011;9088;55.674;13.354;2023-04-08T10:56:32;3.30;;;3.20;;
17925;SDS011;9088;55.674;13.354;2023-04-08T10:58:59;3.30;;;3.20;;
17925;SDS011;9088;55.674;13.354;2023-04-08T11:01:27;3.30;;;3.20;;
17925;SDS011;9088;55.674;13.354;2023-04-08T11:04:06;3.30;;;3.20;;
17925;SDS011;9088;55.674;13.354;2023-04-08T11:06:36;3.30;;;3.20;;
17925;SDS011;9088;55.674;13.354;2023-04-08T11:09:03;3.27;;;3.17;;
17925;SDS011;9088;55.674;13.354;2023-04-08T11:11:30;3.30;;;3.20;;
17925;SDS011;9088;55.674;13.354;2023-04-08T11:13:57;3.20;;;3.10;;
17925;SDS011;9088;55.674;13.354;2023-04-08T11:16:25;2.80;;;2.70;;
17925;SDS011;9088;55.674;13.354;2023-04-08T11:18:53;3.10;;;3.00;;
17925;SDS011;9088;55.674;13.354;2023-04-08T11:21:22;3.40;;;3.30;;
17925;SDS011;9088;55.674;13.354;2023-04-08T11:23:51;3.43;;;3.33;;
17925;SDS011;9088;55.674;13.354;2023-04-08T11:26:18;3.30;;;3.20;;
17925;SDS011;9088;55.674;13.354;2023-04-08T11:28:46;3.50;;;3.40;;
17925;SDS011;9088;55.674;13.354;2023-04-08T11:31:15;3.27;;;3.17;;
17925;SDS011;9088;55.674;13.354;2023-04-08T11:33:48;3.30;;;3.20;;
17925;SDS011;9088;55.674;13.354;2023-04-08T11:36:16;3.40;;;3.30;;
17925;SDS011;9088;55.674;13.354;2023-04-08T11:38:45;3.33;;;3.23;;
17925;SDS011;9088;55.674;13.354;2023-04-08T11:41:14;3.30;;;3.20;;
17925;SDS011;9088;55.674;13.354;2023-04-08T11:46:24;3.50;;;3.40;;
17925;SDS011;9088;55.674;13.354;2023-04-08T11:49:01;3.33;;;3.23;;
17925;SDS011;9088;55.674;13.354;2023-04-08T11:51:28;3.17;;;3.07;;
17925;SDS011;9088;55.674;13.354;2023-04-08T11:53:55;3.30;;;3.20;;
17925;SDS011;9088;55.674;13.354;2023-04-08T11:56:24;3.20;;;3.10;;
17925;SDS011;9088;55.674;13.354;2023-04-08T11:58:53;3.30;;;3.20;;
17925;SDS011;9088;55.674;13.354;2023-04-08T12:01:20;3.23;;;3.13;;
17925;SDS011;9088;55.674;13.354;2023-04-08T12:03:53;3.30;;;3.20;;
17925;SDS011;9088;55.674;13.354;2023-04-08T12:06:20;3.20;;;3.10;;
17925;SDS011;9088;55.674;13.354;2023-04-08T12:08:48;3.10;;;3.00;;
17925;SDS011;9088;55.674;13.354;2023-04-08T12:11:15;3.43;;;3.33;;
17925;SDS011;9088;55.674;13.354;2023-04-08T12:13:44;3.00;;;2.90;;
17925;SDS011;9088;55.674;13.354;2023-04-08T12:16:11;3.30;;;3.20;;
17925;SDS011;9088;55.674;13.354;2023-04-08T12:18:38;3.27;;;3.17;;
17925;SDS011;9088;55.674;13.354;2023-04-08T12:21:05;3.43;;;3.33;;
17925;SDS011;9088;55.674;13.354;2023-04-08T12:23:32;3.37;;;3.27;;
17925;SDS011;9088;55.674;13.354;2023-04-08T12:25:59;3.20;;;3.10;;
17925;SDS011;9088;55.674;13.354;2023-04-08T12:28:26;3.03;;;2.93;;
17925;SDS011;9088;55.674;13.354;2023-04-08T12:30:55;3.10;;;3.00;;
17925;SDS011;9088;55.674;13.354;2023-04-08T12:33:22;3.20;;;3.10;;
17925;SDS011;9088;55.674;13.354;2023-04-08T12:35:49;3.13;;;3.03;;
17925;SDS011;9088;55.674;13.354;2023-04-08T12:38:16;3.27;;;3.17;;
17925;SDS011;9088;55.674;13.354;2023-04-08T12:40:43;3.30;;;3.20;;
17925;SDS011;9088;55.674;13.354;2023-04-08T12:43:10;3.30;;;3.20;;
17925;SDS011;9088;55.674;13.354;2023-04-08T12:45:37;3.20;;;3.10;;
17925;SDS011;9088;55.674;13.354;2023-04-08T12:48:05;3.20;;;3.10;;
17925;SDS011;9088;55.674;13.354;2023-04-08T12:50:32;3.20;;;3.10;;
17925;SDS011;9088;55.674;13.354;2023-04-08T12:52:59;3.30;;;3.20;;
17925;SDS011;9088;55.674;13.354;2023-04-08T12:55:26;2.67;;;2.57;;
17925;SDS011;9088;55.674;13.354;2023-04-08T12:57:53;3.10;;;3.00;;
17925;SDS011;9088;55.674;13.354;2023-04-08T13:00:21;3.30;;;3.20;;
17925;SDS011;9088;55.674;13.354;2023-04-08T13:02:48;3.20;;;3.10;;
17925;SDS011;9088;55.674;13.354;2023-04-08T13:05:16;3.17;;;3.07;;
17925;SDS011;9088;55.674;13.354;2023-04-08T13:07:44;3.20;;;3.10;;
17925;SDS011;9088;55.674;13.354;2023-04-08T13:10:11;3.27;;;3.17;;
17925;SDS011;9088;55.674;13.354;2023-04-08T13:12:38;3.10;;;3.00;;
17925;SDS011;9088;55.674;13.354;2023-04-08T13:15:06;2.97;;;2.87;;
17925;SDS011;9088;55.674;13.354;2023-04-08T13:17:33;3.10;;;3.00;;
17925;SDS011;9088;55.674;13.354;2023-04-08T13:20:00;3.20;;;3.10;;
17925;SDS011;9088;55.674;13.354;2023-04-08T13:22:29;3.17;;;3.07;;
17925;SDS011;9088;55.674;13.354;2023-04-08T13:24:58;2.90;;;2.80;;
17925;SDS011;9088;55.674;13.354;2023-04-08T13:27:25;3.33;;;3.23;;
17925;SDS011;9088;55.674;13.354;2023-04-08T13:29:52;3.20;;;3.10;;
17925;SDS011;9088;55.674;13.354;2023-04-08T13:32:19;2.87;;;2.77;;
17925;SDS011;9088;55.674;13.354;2023-04-08T13:34:46;2.60;;;2.50;;
17925;SDS011;9088;55.674;13.354;2023-04-08T13:37:13;2.83;;;2.73;;
17925;SDS011;9088;55.674;13.354;2023-04-08T13:39:42;2.72;;;2.63;;
17925;SDS011;9088;55.674;13.354;2023-04-08T13:42:09;2.58;;;2.47;;
17925;SDS011;9088;55.674;13.354;2023-04-08T13:44:36;2.50;;;2.40;;
17925;SDS011;9088;55.674;13.354;2023-04-08T13:47:03;2.67;;;2.58;;
17925;SDS011;9088;55.674;13.354;2023-04-08T13:49:30;2.88;;;2.78;;
17925;SDS011;9088;55.674;13.354;2023-04-08T13:51:57;2.67;;;2.58;;
17925;SDS011;9088;55.674;13.354;2023-04-08T13:54:26;2.58;;;2.47;;
17925;SDS011;9088;55.674;13.354;2023-04-08T13:56:55;2.53;;;2.42;;
17925;SDS011;9088;55.674;13.354;2023-04-08T13:59:22;2.95;;;2.85;;
17925;SDS011;9088;55.674;13.354;2023-04-08T14:01:49;2.45;;;2.35;;
17925;SDS011;9088;55.674;13.354;2023-04-08T14:04:18;2.78;;;2.67;;
17925;SDS011;9088;55.674;13.354;2023-04-08T14:06:45;2.75;;;2.65;;
17925;SDS011;9088;55.674;13.354;2023-04-08T14:09:14;3.30;;;3.20;;
17925;SDS011;9088;55.674;13.354;2023-04-08T14:11:41;2.80;;;2.70;;
17925;SDS011;9088;55.674;13.354;2023-04-08T14:14:10;2.53;;;2.42;;
17925;SDS011;9088;55.674;13.354;2023-04-08T14:16:37;3.05;;;2.95;;
17925;SDS011;9088;55.674;13.354;2023-04-08T14:19:04;2.63;;;2.53;;
17925;SDS011;9088;55.674;13.354;2023-04-08T14:21:31;2.90;;;2.80;;
17925;SDS011;9088;55.674;13.354;2023-04-08T14:23:58;3.17;;;3.08;;
17925;SDS011;9088;55.674;13.354;2023-04-08T14:26:25;2.85;;;2.75;;
17925;SDS011;9088;55.674;13.354;2023-04-08T14:28:52;2.90;;;2.80;;
17925;SDS011;9088;55.674;13.354;2023-04-08T14:31:20;3.10;;;3.00;;
17925;SDS011;9088;55.674;13.354;2023-04-08T14:33:50;3.20;;;3.10;;
17925;SDS011;9088;55.674;13.354;2023-04-08T14:36:17;2.90;;;2.80;;
17925;SDS011;9088;55.674;13.354;2023-04-08T14:38:45;3.20;;;3.10;;
17925;SDS011;9088;55.674;13.354;2023-04-08T14:41:12;3.03;;;2.92;;
17925;SDS011;9088;55.674;13.354;2023-04-08T14:43:39;3.75;;;3.65;;
17925;SDS011;9088;55.674;13.354;2023-04-08T14:46:06;3.38;;;3.28;;
17925;SDS011;9088;55.674;13.354;2023-04-08T14:48:34;3.40;;;3.30;;
17925;SDS011;9088;55.674;13.354;2023-04-08T14:51:01;3.28;;;3.17;;
17925;SDS011;9088;55.674;13.354;2023-04-08T14:53:28;3.42;;;3.33;;
17925;SDS011;9088;55.674;13.354;2023-04-08T14:55:55;3.03;;;2.92;;
17925;SDS011;9088;55.674;13.354;2023-04-08T14:58:22;3.42;;;3.33;;
17925;SDS011;9088;55.674;13.354;2023-04-08T15:00:50;2.88;;;2.78;;